createdAt,value
2017-12-04T00:02:19.960Z,5.12
2017-12-04T00:04:45.787Z,5.01
2017-12-04T00:07:11.959Z,4.99
2017-12-04T00:09:37.789Z,4.93
2017-12-04T00:12:03.905Z,4.94
2017-12-04T00:14:29.900Z,5.02
2017-12-04T00:16:55.720Z,5.15
2017-12-04T00:19:21.532Z,5.15
2017-12-04T00:21:47.870Z,5.03
2017-12-04T00:24:14.596Z,4.99
2017-12-04T00:26:40.404Z,5.02
2017-12-04T00:29:07.007Z,5.00
2017-12-04T00:31:32.798Z,4.99
2017-12-04T00:33:58.579Z,5.11
2017-12-04T00:36:24.738Z,5.23
2017-12-04T00:38:50.550Z,5.52
2017-12-04T00:41:16.337Z,5.68
2017-12-04T00:43:42.133Z,5.45
2017-12-04T00:46:07.945Z,5.54
2017-12-04T00:48:33.730Z,5.47
2017-12-04T00:50:59.542Z,5.53
2017-12-04T00:53:25.330Z,5.44
2017-12-04T00:55:51.139Z,5.40
2017-12-04T00:58:16.967Z,5.48
2017-12-04T01:00:42.784Z,5.62
2017-12-04T01:03:08.578Z,5.59
2017-12-04T01:05:34.393Z,5.53
2017-12-04T01:08:00.206Z,5.51
2017-12-04T01:10:25.984Z,5.35
2017-12-04T01:12:51.788Z,5.40
2017-12-04T01:15:17.571Z,5.25
2017-12-04T01:17:43.388Z,5.32
2017-12-04T01:20:09.172Z,5.32
2017-12-04T01:22:34.951Z,5.27
2017-12-04T01:25:00.760Z,5.20
2017-12-04T01:27:26.556Z,5.35
2017-12-04T01:29:52.347Z,5.34
2017-12-04T01:32:18.180Z,5.33
2017-12-04T01:34:43.980Z,5.82
2017-12-04T01:37:09.755Z,5.44
2017-12-04T01:39:35.548Z,5.46
2017-12-04T01:42:01.370Z,5.62
2017-12-04T01:44:27.179Z,5.34
2017-12-04T01:46:52.982Z,5.24
2017-12-04T01:49:18.760Z,5.15
2017-12-04T01:51:44.588Z,5.06
2017-12-04T01:54:10.405Z,5.05
2017-12-04T01:56:36.181Z,5.13
2017-12-04T01:59:02.259Z,5.10
2017-12-04T02:01:28.072Z,5.13
2017-12-04T02:03:53.867Z,5.16
2017-12-04T02:06:19.674Z,5.12
2017-12-04T02:08:45.480Z,5.06
2017-12-04T02:11:11.265Z,5.05
2017-12-04T02:13:37.072Z,5.17
2017-12-04T02:16:02.897Z,5.28
2017-12-04T02:18:28.715Z,5.32
2017-12-04T02:20:54.514Z,5.31
2017-12-04T02:23:20.319Z,5.19
2017-12-04T02:25:46.220Z,5.32
2017-12-04T02:28:12.007Z,5.33
2017-12-04T02:30:37.792Z,5.30
2017-12-04T02:33:03.621Z,5.30
2017-12-04T02:35:29.439Z,5.54
2017-12-04T02:37:55.257Z,5.59
2017-12-04T02:40:21.334Z,5.48
2017-12-04T02:42:47.160Z,5.45
2017-12-04T02:45:12.971Z,5.41
2017-12-04T02:47:39.656Z,5.38
2017-12-04T02:50:05.454Z,5.31
2017-12-04T02:52:31.263Z,5.22
2017-12-04T02:54:57.171Z,5.16
2017-12-04T02:57:22.994Z,5.19
2017-12-04T02:59:48.803Z,5.22
2017-12-04T03:04:47.634Z,5.35
2017-12-04T03:07:13.412Z,5.24
2017-12-04T03:09:39.187Z,5.12
2017-12-04T03:12:04.992Z,5.10
2017-12-04T03:14:30.776Z,5.17
2017-12-04T03:16:56.572Z,5.12
2017-12-04T03:19:22.378Z,5.03
2017-12-04T03:21:48.177Z,5.08
2017-12-04T03:24:14.072Z,5.17
2017-12-04T03:26:39.886Z,5.02
2017-12-04T03:29:05.687Z,5.03
2017-12-04T03:31:31.490Z,4.99
2017-12-04T03:33:57.317Z,4.99
2017-12-04T03:36:23.149Z,4.99
2017-12-04T03:38:48.940Z,4.90
2017-12-04T03:41:14.752Z,4.88
2017-12-04T03:43:40.566Z,4.87
2017-12-04T03:46:06.383Z,4.84
2017-12-04T03:48:32.176Z,4.81
2017-12-04T03:50:57.960Z,4.85
2017-12-04T03:53:23.762Z,4.88
2017-12-04T03:55:49.568Z,4.90
2017-12-04T03:58:15.374Z,5.02
2017-12-04T04:00:41.294Z,4.92
2017-12-04T04:03:07.101Z,4.87
2017-12-04T04:05:32.904Z,4.91
2017-12-04T04:07:58.713Z,4.93
2017-12-04T04:10:24.521Z,4.92
2017-12-04T04:12:50.311Z,4.97
2017-12-04T04:15:16.198Z,5.03
2017-12-04T04:17:42.008Z,5.15
2017-12-04T04:20:07.807Z,5.03
2017-12-04T04:22:33.638Z,4.97
2017-12-04T04:24:59.478Z,4.90
2017-12-04T04:27:25.569Z,5.15
2017-12-04T04:29:51.343Z,5.14
2017-12-04T04:32:17.139Z,5.03
2017-12-04T04:34:44.041Z,5.03
2017-12-04T04:37:09.831Z,4.98
2017-12-04T04:39:35.619Z,4.95
2017-12-04T04:42:01.474Z,5.10
2017-12-04T04:44:27.281Z,5.07
2017-12-04T04:46:53.069Z,5.17
2017-12-04T04:49:18.902Z,5.18
2017-12-04T04:51:44.738Z,5.13
2017-12-04T04:54:10.574Z,5.45
2017-12-04T04:56:36.399Z,5.17
2017-12-04T04:59:02.235Z,4.93
2017-12-04T05:01:28.059Z,5.21
2017-12-04T05:03:54.726Z,5.20
2017-12-04T05:06:20.586Z,5.08
2017-12-04T05:08:46.387Z,5.07
2017-12-04T05:11:13.020Z,5.12
2017-12-04T05:13:39.693Z,5.25
2017-12-04T05:16:06.656Z,5.09
2017-12-04T05:18:33.377Z,5.11
2017-12-04T05:21:00.076Z,5.23
2017-12-04T05:23:25.964Z,5.19
2017-12-04T05:25:52.167Z,5.18
2017-12-04T05:28:17.954Z,5.23
2017-12-04T05:30:43.752Z,5.32
2017-12-04T05:33:09.559Z,5.66
2017-12-04T05:35:35.367Z,5.64
2017-12-04T05:38:01.153Z,5.65
2017-12-04T05:40:26.991Z,5.70
2017-12-04T05:42:52.774Z,5.83
2017-12-04T05:45:18.590Z,5.57
2017-12-04T05:47:44.722Z,5.40
2017-12-04T05:50:10.522Z,5.42
2017-12-04T05:52:36.330Z,5.37
2017-12-04T05:55:02.176Z,5.29
2017-12-04T05:57:27.998Z,5.58
2017-12-04T05:59:53.792Z,5.41
2017-12-04T06:02:20.415Z,5.38
2017-12-04T06:04:46.206Z,5.41
2017-12-04T06:07:11.979Z,5.30
2017-12-04T06:09:38.028Z,5.35
2017-12-04T06:12:03.822Z,5.52
2017-12-04T06:14:29.594Z,5.50
2017-12-04T06:16:55.410Z,5.54
2017-12-04T06:19:21.251Z,5.36
2017-12-04T06:21:47.040Z,5.99
2017-12-04T06:24:12.829Z,5.64
2017-12-04T06:26:38.605Z,5.44
2017-12-04T06:29:04.399Z,5.41
2017-12-04T06:31:30.207Z,5.40
2017-12-04T06:33:55.982Z,5.29
2017-12-04T06:36:21.763Z,5.16
2017-12-04T06:38:47.575Z,5.15
2017-12-04T06:41:13.358Z,5.06
2017-12-04T06:43:39.142Z,4.98
2017-12-04T06:46:04.947Z,5.01
2017-12-04T06:48:30.812Z,5.07
2017-12-04T06:50:56.663Z,4.95
2017-12-04T06:53:22.480Z,5.11
2017-12-04T06:55:48.314Z,5.22
2017-12-04T06:58:14.098Z,5.16
2017-12-04T07:00:40.062Z,5.19
2017-12-04T07:03:05.850Z,5.15
2017-12-04T07:05:31.628Z,5.23
2017-12-04T07:07:57.653Z,5.29
2017-12-04T07:10:23.436Z,5.32
2017-12-04T07:12:49.224Z,5.17
2017-12-04T07:15:15.020Z,5.18
2017-12-04T07:17:41.073Z,5.08
2017-12-04T07:20:06.864Z,5.03
2017-12-04T07:22:32.679Z,5.19
2017-12-04T07:24:58.491Z,5.11
2017-12-04T07:27:24.462Z,4.98
2017-12-04T07:29:50.249Z,5.06
2017-12-04T07:32:16.031Z,4.92
2017-12-04T07:34:41.857Z,4.99
2017-12-04T07:37:07.644Z,5.06
2017-12-04T07:39:33.435Z,5.07
2017-12-04T07:41:59.226Z,5.09
2017-12-04T07:44:25.005Z,5.21
2017-12-04T07:46:50.815Z,5.17
2017-12-04T07:49:16.977Z,5.14
2017-12-04T07:51:42.758Z,5.28
2017-12-04T07:54:08.550Z,5.32
2017-12-04T07:56:34.343Z,5.18
2017-12-04T07:59:00.127Z,5.21
2017-12-04T08:01:26.043Z,5.31
2017-12-04T08:03:51.851Z,5.25
2017-12-04T08:06:18.033Z,5.19
2017-12-04T08:08:43.862Z,5.41
2017-12-04T08:11:09.662Z,5.52
2017-12-04T08:13:35.459Z,5.49
2017-12-04T08:16:01.567Z,5.50
2017-12-04T08:18:27.358Z,5.39
2017-12-04T08:20:53.167Z,5.40
2017-12-04T08:23:19.375Z,5.32
2017-12-04T08:25:46.025Z,5.29
2017-12-04T08:28:12.724Z,5.25
2017-12-04T08:30:39.610Z,5.24
2017-12-04T08:33:06.444Z,5.32
2017-12-04T08:35:34.577Z,5.35
2017-12-04T08:38:00.806Z,5.51
2017-12-04T08:40:27.168Z,5.58
2017-12-04T08:42:53.291Z,5.62
2017-12-04T08:45:19.873Z,5.60
2017-12-04T08:47:45.677Z,5.55
2017-12-04T08:50:11.481Z,5.56
2017-12-04T08:52:37.532Z,5.52
2017-12-04T08:55:03.395Z,5.56
2017-12-04T08:57:29.189Z,5.56
2017-12-04T08:59:55.457Z,5.58
2017-12-04T09:02:21.302Z,5.58
2017-12-04T09:04:47.242Z,5.63
2017-12-04T09:07:13.484Z,5.63
2017-12-04T09:09:39.544Z,5.67
2017-12-04T09:12:05.473Z,5.76
2017-12-04T09:14:31.273Z,5.72
2017-12-04T09:16:57.733Z,5.78
2017-12-04T09:19:23.587Z,5.66
2017-12-04T09:21:49.397Z,5.87
2017-12-04T09:24:15.371Z,5.81
2017-12-04T09:26:42.421Z,5.80
2017-12-04T09:29:08.537Z,5.92
2017-12-04T09:31:34.437Z,6.17
2017-12-04T09:34:00.390Z,6.01
2017-12-04T09:36:26.234Z,5.93
2017-12-04T09:38:51.982Z,5.97
2017-12-04T09:41:18.549Z,6.00
2017-12-04T09:43:44.412Z,5.94
2017-12-04T09:46:11.219Z,5.85
2017-12-04T09:48:37.106Z,5.87
2017-12-04T09:51:03.356Z,5.99
2017-12-04T09:53:29.226Z,6.07
2017-12-04T09:55:55.595Z,6.11
2017-12-04T09:58:22.232Z,6.38
2017-12-04T10:00:49.453Z,6.34
2017-12-04T10:03:16.035Z,6.35
2017-12-04T10:05:42.808Z,6.32
2017-12-04T10:08:09.552Z,6.21
2017-12-04T10:10:36.385Z,6.27
2017-12-04T10:13:03.007Z,6.39
2017-12-04T10:15:29.832Z,6.12
2017-12-04T10:17:56.803Z,6.06
2017-12-04T10:20:22.704Z,6.19
2017-12-04T10:22:48.528Z,6.14
2017-12-04T10:25:14.874Z,6.20
2017-12-04T10:27:40.690Z,6.35
2017-12-04T10:30:06.508Z,6.21
2017-12-04T10:32:32.352Z,6.24
2017-12-04T10:34:58.163Z,6.11
2017-12-04T10:37:24.009Z,6.14
2017-12-04T10:42:17.384Z,6.17
2017-12-04T10:44:44.312Z,6.13
2017-12-04T10:47:10.850Z,6.16
2017-12-04T10:49:36.724Z,6.29
2017-12-04T10:52:02.543Z,6.26
2017-12-04T10:54:28.584Z,6.29
2017-12-04T10:56:54.499Z,6.36
2017-12-04T10:59:20.321Z,6.34
2017-12-04T11:01:46.424Z,6.46
2017-12-04T11:04:12.339Z,6.50
2017-12-04T11:06:38.196Z,6.56
2017-12-04T11:09:05.402Z,6.48
2017-12-04T11:11:31.855Z,6.54
2017-12-04T11:13:57.973Z,6.54
2017-12-04T11:16:23.775Z,6.50
2017-12-04T11:18:50.256Z,6.45
2017-12-04T11:21:17.071Z,6.50
2017-12-04T11:23:43.002Z,6.71
2017-12-04T11:26:09.391Z,6.78
2017-12-04T11:28:35.362Z,6.84
2017-12-04T11:31:01.183Z,6.85
2017-12-04T11:33:27.175Z,6.83
2017-12-04T11:35:53.514Z,6.78
2017-12-04T11:38:19.523Z,6.68
2017-12-04T11:40:45.364Z,6.80
2017-12-04T11:43:11.420Z,6.80
2017-12-04T11:45:38.015Z,6.81
2017-12-04T11:48:05.249Z,6.96
2017-12-04T11:50:31.496Z,6.99
2017-12-04T11:52:57.483Z,6.88
2017-12-04T11:55:23.317Z,6.82
2017-12-04T11:57:49.965Z,6.81
2017-12-04T12:00:16.505Z,6.93
2017-12-04T12:02:42.733Z,6.95
2017-12-04T12:05:08.613Z,6.96
2017-12-04T12:07:34.431Z,7.12
2017-12-04T12:10:00.310Z,7.10
2017-12-04T12:12:27.363Z,7.15
2017-12-04T12:14:53.674Z,7.03
2017-12-04T12:17:19.673Z,7.21
2017-12-04T12:19:45.520Z,7.20
2017-12-04T12:22:12.052Z,7.22
2017-12-04T12:24:37.890Z,7.03
2017-12-04T12:27:04.781Z,6.85
2017-12-04T12:29:31.431Z,6.92
2017-12-04T12:31:58.757Z,6.96
2017-12-04T12:34:25.252Z,6.85
2017-12-04T12:36:51.284Z,6.97
2017-12-04T12:39:17.859Z,7.00
2017-12-04T12:41:43.669Z,7.02
2017-12-04T12:44:09.491Z,7.26
2017-12-04T12:46:35.704Z,7.21
2017-12-04T12:49:02.363Z,7.28
2017-12-04T12:51:29.074Z,7.42
2017-12-04T12:53:55.869Z,7.42
2017-12-04T12:56:22.288Z,7.43
2017-12-04T12:58:48.616Z,7.50
2017-12-04T13:01:14.471Z,7.79
2017-12-04T13:03:41.163Z,7.93
2017-12-04T13:06:08.242Z,7.67
2017-12-04T13:08:34.926Z,7.63
2017-12-04T13:11:00.996Z,7.32
2017-12-04T13:13:27.372Z,7.38
2017-12-04T13:15:53.188Z,7.38
2017-12-04T13:18:19.975Z,7.13
2017-12-04T13:20:46.101Z,6.94
2017-12-04T13:23:11.952Z,7.01
2017-12-04T13:25:38.682Z,6.85
2017-12-04T13:28:05.943Z,6.83
2017-12-04T13:30:33.017Z,6.73
2017-12-04T13:33:12.220Z,6.61
2017-12-04T13:35:51.483Z,6.71
2017-12-04T13:38:17.672Z,6.50
2017-12-04T13:40:44.310Z,6.42
2017-12-04T13:43:10.126Z,6.36
2017-12-04T13:45:35.958Z,6.42
2017-12-04T13:48:02.395Z,6.48
2017-12-04T13:50:29.155Z,6.43
2017-12-04T13:52:56.074Z,6.36
2017-12-04T13:55:22.971Z,6.31
2017-12-04T13:57:49.144Z,6.46
2017-12-04T14:00:15.105Z,6.50
2017-12-04T14:02:41.900Z,6.33
2017-12-04T14:05:08.020Z,6.31
2017-12-04T14:07:35.094Z,6.29
2017-12-04T14:10:01.428Z,6.18
2017-12-04T14:12:27.404Z,6.36
2017-12-04T14:14:54.188Z,6.25
2017-12-04T14:17:21.033Z,6.26
2017-12-04T14:19:47.079Z,6.24
2017-12-04T14:22:12.998Z,6.13
2017-12-04T14:24:38.872Z,6.06
2017-12-04T14:27:04.925Z,6.05
2017-12-04T14:29:30.812Z,5.95
2017-12-04T14:31:56.612Z,5.97
2017-12-04T14:34:22.666Z,6.03
2017-12-04T14:36:48.556Z,6.13
2017-12-04T14:39:14.563Z,6.10
2017-12-04T14:41:40.589Z,6.07
2017-12-04T14:44:08.046Z,6.01
2017-12-04T14:46:33.920Z,5.95
2017-12-04T14:48:59.751Z,5.95
2017-12-04T14:51:25.620Z,5.93
2017-12-04T14:53:51.452Z,5.97
2017-12-04T14:56:18.095Z,5.95
2017-12-04T14:58:44.524Z,5.94
2017-12-04T15:01:10.336Z,6.06
2017-12-04T15:03:36.147Z,5.94
2017-12-04T15:06:02.187Z,6.09
2017-12-04T15:08:28.009Z,6.05
2017-12-04T15:10:53.827Z,5.98
2017-12-04T15:13:19.830Z,6.14
2017-12-04T15:15:45.658Z,6.06
2017-12-04T15:18:11.476Z,6.07
2017-12-04T15:20:37.327Z,6.23
2017-12-04T15:23:03.141Z,6.23
2017-12-04T15:25:28.943Z,6.21
2017-12-04T15:27:54.940Z,6.19
2017-12-04T15:30:20.757Z,6.14
2017-12-04T15:32:46.550Z,6.12
2017-12-04T15:35:12.375Z,6.21
2017-12-04T15:37:38.188Z,6.17
2017-12-04T15:40:04.004Z,6.16
2017-12-04T15:42:29.834Z,6.10
2017-12-04T15:44:55.651Z,6.14
2017-12-04T15:47:21.449Z,6.28
2017-12-04T15:49:47.278Z,6.10
2017-12-04T15:52:13.070Z,6.05
2017-12-04T15:54:38.877Z,6.00
2017-12-04T15:57:04.978Z,5.92
2017-12-04T15:59:30.797Z,5.94
2017-12-04T16:01:56.604Z,5.83
2017-12-04T16:04:22.452Z,5.98
2017-12-04T16:06:48.263Z,5.94
2017-12-04T16:09:14.075Z,5.86
2017-12-04T16:11:39.901Z,5.96
2017-12-04T16:14:05.710Z,6.00
2017-12-04T16:16:31.510Z,5.97
2017-12-04T16:18:57.556Z,5.94
2017-12-04T16:21:23.371Z,5.97
2017-12-04T16:23:49.164Z,6.00
2017-12-04T16:26:16.136Z,6.16
2017-12-04T16:28:41.934Z,5.98
2017-12-04T16:31:07.749Z,6.00
2017-12-04T16:33:33.584Z,5.86
2017-12-04T16:35:59.413Z,6.00
2017-12-04T16:38:25.226Z,5.81
2017-12-04T16:40:51.063Z,5.80
2017-12-04T16:43:16.887Z,5.88
2017-12-04T16:45:42.691Z,5.84
2017-12-04T16:48:08.495Z,5.77
2017-12-04T16:50:34.312Z,5.81
2017-12-04T16:53:00.102Z,5.78
2017-12-04T16:55:25.939Z,5.84
2017-12-04T16:57:51.715Z,5.83
2017-12-04T17:00:17.596Z,5.79
2017-12-04T17:02:43.415Z,5.79
2017-12-04T17:05:09.239Z,5.73
2017-12-04T17:07:35.099Z,5.84
2017-12-04T17:10:00.945Z,5.87
2017-12-04T17:12:26.743Z,5.81
2017-12-04T17:14:52.800Z,5.78
2017-12-04T17:17:18.646Z,5.72
2017-12-04T17:19:44.509Z,5.72
2017-12-04T17:22:10.314Z,5.63
2017-12-04T17:24:36.104Z,5.69
2017-12-04T17:27:02.213Z,5.73
2017-12-04T17:29:28.022Z,5.66
2017-12-04T17:31:53.837Z,5.63
2017-12-04T17:34:19.644Z,5.75
2017-12-04T17:36:45.450Z,5.72
2017-12-04T17:39:11.252Z,5.67
2017-12-04T17:41:37.091Z,5.81
2017-12-04T17:44:02.883Z,5.81
2017-12-04T17:46:28.718Z,5.79
2017-12-04T17:48:54.535Z,5.88
2017-12-04T17:51:20.336Z,5.80
2017-12-04T17:53:46.200Z,5.89
2017-12-04T17:56:12.002Z,5.78
2017-12-04T17:58:37.800Z,5.82
2017-12-04T18:01:03.646Z,5.87
2017-12-04T18:03:29.480Z,5.79
2017-12-04T18:05:55.307Z,5.93
2017-12-04T18:08:21.144Z,5.77
2017-12-04T18:10:46.952Z,5.87
2017-12-04T18:13:12.755Z,5.80
2017-12-04T18:15:38.693Z,5.75
2017-12-04T18:18:04.505Z,5.74
2017-12-04T18:20:30.309Z,5.67
2017-12-04T18:22:56.388Z,5.75
2017-12-04T18:25:22.187Z,5.66
2017-12-04T18:27:47.995Z,5.65
2017-12-04T18:30:13.820Z,5.67
2017-12-04T18:32:39.634Z,5.56
2017-12-04T18:35:05.469Z,5.59
2017-12-04T18:37:31.306Z,5.59
2017-12-04T18:39:57.124Z,5.62
2017-12-04T18:42:22.939Z,5.60
2017-12-04T18:44:48.858Z,5.69
2017-12-04T18:47:14.674Z,5.66
2017-12-04T18:49:40.500Z,5.67
2017-12-04T18:52:06.337Z,5.66
2017-12-04T18:54:32.157Z,5.71
2017-12-04T18:56:57.946Z,5.68
2017-12-04T18:59:23.843Z,5.72
2017-12-04T19:01:49.647Z,5.76
2017-12-04T19:04:15.468Z,5.75
2017-12-04T19:06:41.300Z,5.76
2017-12-04T19:09:07.121Z,5.72
2017-12-04T19:11:33.194Z,5.78
2017-12-04T19:13:59.336Z,5.81
2017-12-04T19:16:25.953Z,5.79
2017-12-04T19:18:51.777Z,5.74
2017-12-04T19:21:17.771Z,5.80
2017-12-04T19:23:43.584Z,5.79
2017-12-04T19:26:09.396Z,5.82
2017-12-04T19:28:35.569Z,5.86
2017-12-04T19:31:01.379Z,5.86
2017-12-04T19:33:27.179Z,5.81
2017-12-04T19:35:52.972Z,5.81
2017-12-04T19:38:18.803Z,5.75
2017-12-04T19:40:44.635Z,5.83
2017-12-04T19:43:10.452Z,5.85
2017-12-04T19:45:36.286Z,5.83
2017-12-04T19:48:02.080Z,5.81
2017-12-04T19:50:27.878Z,5.87
2017-12-04T19:52:54.023Z,5.80
2017-12-04T19:55:19.863Z,5.80
2017-12-04T19:57:45.718Z,5.75
2017-12-04T20:00:11.617Z,5.82
2017-12-04T20:02:37.447Z,5.78
2017-12-04T20:05:03.287Z,5.84
2017-12-04T20:10:07.158Z,5.83
2017-12-04T20:12:32.975Z,5.79
2017-12-04T20:14:58.774Z,5.68
2017-12-04T20:17:24.609Z,5.67
2017-12-04T20:19:50.410Z,5.62
2017-12-04T20:22:16.232Z,5.63
2017-12-04T20:24:42.070Z,5.69
2017-12-04T20:27:07.870Z,5.65
2017-12-04T20:29:33.680Z,5.64
2017-12-04T20:31:59.746Z,5.63
2017-12-04T20:34:25.552Z,5.63
2017-12-04T20:36:51.355Z,5.63
2017-12-04T20:39:17.186Z,5.62
2017-12-04T20:41:42.983Z,5.60
2017-12-04T20:44:08.771Z,5.62
2017-12-04T20:46:34.615Z,5.59
2017-12-04T20:49:00.406Z,5.64
2017-12-04T20:51:26.208Z,5.62
2017-12-04T20:53:52.034Z,5.59
2017-12-04T20:56:17.848Z,5.61
2017-12-04T20:58:43.684Z,5.62
2017-12-04T21:01:09.492Z,5.60
2017-12-04T21:03:35.374Z,5.60
2017-12-04T21:06:01.287Z,5.57
2017-12-04T21:08:39.577Z,5.59
2017-12-04T21:11:17.626Z,5.68
2017-12-04T21:13:55.727Z,5.68
2017-12-04T21:19:17.535Z,5.69
2017-12-04T21:21:43.327Z,5.72
2017-12-04T21:24:09.136Z,5.74
2017-12-04T21:26:34.948Z,5.77
2017-12-04T21:29:00.740Z,5.77
2017-12-04T21:31:26.545Z,5.84
2017-12-04T21:33:52.388Z,5.82
2017-12-04T21:36:18.178Z,5.84
2017-12-04T21:38:43.962Z,5.90
2017-12-04T21:41:09.796Z,5.91
2017-12-04T21:43:35.602Z,5.95
2017-12-04T21:46:01.412Z,5.96
2017-12-04T21:48:27.490Z,5.93
2017-12-04T21:50:53.295Z,5.97
2017-12-04T21:53:19.088Z,5.94
2017-12-04T21:55:44.930Z,6.02
2017-12-04T21:58:10.713Z,6.01
2017-12-04T22:00:36.519Z,5.99
2017-12-04T22:03:02.347Z,5.95
2017-12-04T22:05:28.142Z,6.02
2017-12-04T22:07:53.946Z,5.95
2017-12-04T22:10:19.791Z,6.03
2017-12-04T22:12:45.611Z,6.03
2017-12-04T22:15:11.429Z,6.03
2017-12-04T22:17:37.247Z,6.06
2017-12-04T22:20:03.052Z,6.02
2017-12-04T22:22:28.850Z,6.04
2017-12-04T22:24:54.765Z,6.07
2017-12-04T22:27:20.577Z,6.07
2017-12-04T22:29:46.388Z,6.11
2017-12-04T22:32:12.203Z,6.10
2017-12-04T22:34:38.001Z,6.11
2017-12-04T22:37:03.795Z,6.16
2017-12-04T22:39:29.598Z,6.16
2017-12-04T22:41:55.406Z,6.17
2017-12-04T22:44:21.215Z,6.17
2017-12-04T22:46:47.046Z,6.18
2017-12-04T22:49:12.856Z,6.20
2017-12-04T22:51:38.659Z,6.22
2017-12-04T22:54:04.592Z,6.27
2017-12-04T22:56:30.453Z,6.27
2017-12-04T22:58:56.319Z,6.29
2017-12-04T23:01:22.338Z,6.33
2017-12-04T23:03:48.173Z,6.39
2017-12-04T23:06:14.025Z,6.39
2017-12-04T23:08:39.847Z,6.42
2017-12-04T23:11:05.678Z,6.42
2017-12-04T23:13:31.471Z,6.47
2017-12-04T23:15:57.419Z,6.58
2017-12-04T23:18:23.238Z,6.61
2017-12-04T23:20:49.046Z,6.70
2017-12-04T23:23:14.894Z,6.68
2017-12-04T23:25:40.734Z,6.74
2017-12-04T23:28:06.526Z,6.78
2017-12-04T23:30:32.585Z,6.81
2017-12-04T23:32:58.410Z,6.85
2017-12-04T23:35:24.204Z,6.89
2017-12-04T23:37:50.064Z,6.92
2017-12-04T23:40:15.862Z,6.91
2017-12-04T23:42:41.676Z,6.97
2017-12-04T23:45:07.486Z,6.99
2017-12-04T23:47:33.277Z,7.05
2017-12-04T23:49:59.083Z,7.07
2017-12-04T23:52:24.902Z,7.07
2017-12-04T23:54:50.688Z,7.05
2017-12-04T23:57:16.459Z,7.12
2017-12-04T23:59:42.255Z,7.21
